sensor_id;sensor_type;location;lat;lon;timestamp;temperature;humidity
46309;DHT22;32037;50.820;6.494;2023-04-24T04:12:45;14.40;79.60
46309;DHT22;32037;50.820;6.494;2023-04-24T04:15:17;14.40;80.00
46309;DHT22;32037;50.820;6.494;2023-04-24T04:17:46;14.40;79.40
46309;DHT22;32037;50.820;6.494;2023-04-24T04:20:15;14.40;79.80
46309;DHT22;32037;50.820;6.494;2023-04-24T04:22:44;14.40;79.70
46309;DHT22;32037;50.820;6.494;2023-04-24T04:25:18;14.40;78.70
46309;DHT22;32037;50.820;6.494;2023-04-24T04:27:48;14.40;78.90
46309;DHT22;32037;50.820;6.494;2023-04-24T04:30:20;14.40;79.00
46309;DHT22;32037;50.820;6.494;2023-04-24T04:32:57;14.30;79.20
46309;DHT22;32037;50.820;6.494;2023-04-24T04:35:26;14.40;79.00
46309;DHT22;32037;50.820;6.494;2023-04-24T04:37:55;14.30;79.80
46309;DHT22;32037;50.820;6.494;2023-04-24T04:40:42;14.30;79.50
46309;DHT22;32037;50.820;6.494;2023-04-24T04:43:13;14.30;80.00
46309;DHT22;32037;50.820;6.494;2023-04-24T04:45:51;14.30;79.70
46309;DHT22;32037;50.820;6.494;2023-04-24T04:48:43;14.30;79.60
46309;DHT22;32037;50.820;6.494;2023-04-24T04:51:14;14.30;79.40
46309;DHT22;32037;50.820;6.494;2023-04-24T04:53:45;14.30;80.00
46309;DHT22;32037;50.820;6.494;2023-04-24T04:56:14;14.30;79.60
46309;DHT22;32037;50.820;6.494;2023-04-24T04:58:47;14.30;79.50
46309;DHT22;32037;50.820;6.494;2023-04-24T05:01:19;14.30;79.90
46309;DHT22;32037;50.820;6.494;2023-04-24T05:03:49;14.30;79.80
46309;DHT22;32037;50.820;6.494;2023-04-24T05:06:18;14.30;80.00
46309;DHT22;32037;50.820;6.494;2023-04-24T05:08:50;14.30;80.20
46309;DHT22;32037;50.820;6.494;2023-04-24T05:11:33;14.30;79.70
46309;DHT22;32037;50.820;6.494;2023-04-24T05:14:04;14.30;80.00
46309;DHT22;32037;50.820;6.494;2023-04-24T05:16:39;14.30;79.80
46309;DHT22;32037;50.820;6.494;2023-04-24T05:19:09;14.30;79.90
46309;DHT22;32037;50.820;6.494;2023-04-24T05:21:41;14.30;79.90
46309;DHT22;32037;50.820;6.494;2023-04-24T05:24:13;14.30;80.10
46309;DHT22;32037;50.820;6.494;2023-04-24T05:27:11;14.30;80.10
46309;DHT22;32037;50.820;6.494;2023-04-24T05:29:42;14.20;80.00
46309;DHT22;32037;50.820;6.494;2023-04-24T05:32:12;14.30;80.10
46309;DHT22;32037;50.820;6.494;2023-04-24T05:34:41;14.20;80.30
46309;DHT22;32037;50.820;6.494;2023-04-24T05:37:10;14.20;80.10
46309;DHT22;32037;50.820;6.494;2023-04-24T05:39:39;14.20;79.90
46309;DHT22;32037;50.820;6.494;2023-04-24T05:42:10;14.20;80.00
46309;DHT22;32037;50.820;6.494;2023-04-24T05:44:39;14.20;80.10
46309;DHT22;32037;50.820;6.494;2023-04-24T05:47:12;14.20;80.00
46309;DHT22;32037;50.820;6.494;2023-04-24T05:49:44;14.20;80.00
46309;DHT22;32037;50.820;6.494;2023-04-24T05:52:35;14.20;80.00
46309;DHT22;32037;50.820;6.494;2023-04-24T05:55:19;14.20;79.90
46309;DHT22;32037;50.820;6.494;2023-04-24T05:57:52;14.20;80.00
46309;DHT22;32037;50.820;6.494;2023-04-24T06:00:25;14.20;79.70
46309;DHT22;32037;50.820;6.494;2023-04-24T06:03:04;14.20;80.40
46309;DHT22;32037;50.820;6.494;2023-04-24T06:05:43;14.20;80.40
46309;DHT22;32037;50.820;6.494;2023-04-24T06:08:13;14.10;80.30
46309;DHT22;32037;50.820;6.494;2023-04-24T06:10:49;14.10;79.90
46309;DHT22;32037;50.820;6.494;2023-04-24T06:13:21;14.20;80.40
46309;DHT22;32037;50.820;6.494;2023-04-24T06:16:32;14.10;80.40
46309;DHT22;32037;50.820;6.494;2023-04-24T06:19:13;14.20;80.50
46309;DHT22;32037;50.820;6.494;2023-04-24T06:21:41;14.10;80.80
46309;DHT22;32037;50.820;6.494;2023-04-24T06:24:10;14.10;80.60
46309;DHT22;32037;50.820;6.494;2023-04-24T06:26:39;14.10;80.70
46309;DHT22;32037;50.820;6.494;2023-04-24T06:29:08;14.10;80.70
46309;DHT22;32037;50.820;6.494;2023-04-24T06:31:37;14.10;80.90
46309;DHT22;32037;50.820;6.494;2023-04-24T06:34:06;14.10;80.90
46309;DHT22;32037;50.820;6.494;2023-04-24T06:36:36;14.10;81.00
46309;DHT22;32037;50.820;6.494;2023-04-24T06:39:05;14.10;80.90
46309;DHT22;32037;50.820;6.494;2023-04-24T06:41:34;14.10;80.90
46309;DHT22;32037;50.820;6.494;2023-04-24T06:44:03;14.10;80.90
46309;DHT22;32037;50.820;6.494;2023-04-24T06:46:32;14.10;81.20
46309;DHT22;32037;50.820;6.494;2023-04-24T06:49:01;14.10;81.20
46309;DHT22;32037;50.820;6.494;2023-04-24T06:51:30;14.10;81.40
46309;DHT22;32037;50.820;6.494;2023-04-24T06:54:01;14.10;81.30
46309;DHT22;32037;50.820;6.494;2023-04-24T06:56:31;14.10;81.20
46309;DHT22;32037;50.820;6.494;2023-04-24T06:59:01;14.10;81.10
46309;DHT22;32037;50.820;6.494;2023-04-24T07:01:29;14.10;81.60
46309;DHT22;32037;50.820;6.494;2023-04-24T07:03:58;14.00;81.30
46309;DHT22;32037;50.820;6.494;2023-04-24T07:06:27;14.00;81.30
46309;DHT22;32037;50.820;6.494;2023-04-24T07:08:59;14.10;81.50
46309;DHT22;32037;50.820;6.494;2023-04-24T07:11:30;14.00;81.30
46309;DHT22;32037;50.820;6.494;2023-04-24T07:14:00;14.00;81.30
46309;DHT22;32037;50.820;6.494;2023-04-24T07:16:28;14.10;81.60
46309;DHT22;32037;50.820;6.494;2023-04-24T07:18:59;14.00;81.60
46309;DHT22;32037;50.820;6.494;2023-04-24T07:21:28;14.00;81.50
46309;DHT22;32037;50.820;6.494;2023-04-24T07:24:01;14.00;81.40
46309;DHT22;32037;50.820;6.494;2023-04-24T07:26:41;14.00;81.30
46309;DHT22;32037;50.820;6.494;2023-04-24T07:29:10;14.00;81.40
46309;DHT22;32037;50.820;6.494;2023-04-24T07:31:38;14.00;81.60
46309;DHT22;32037;50.820;6.494;2023-04-24T07:34:08;14.00;81.60
46309;DHT22;32037;50.820;6.494;2023-04-24T07:36:36;14.00;81.50
46309;DHT22;32037;50.820;6.494;2023-04-24T07:39:06;14.00;81.70
46309;DHT22;32037;50.820;6.494;2023-04-24T07:41:35;13.90;81.80
46309;DHT22;32037;50.820;6.494;2023-04-24T07:44:05;13.90;82.00
46309;DHT22;32037;50.820;6.494;2023-04-24T07:46:34;13.90;81.90
46309;DHT22;32037;50.820;6.494;2023-04-24T07:49:03;13.90;81.90
46309;DHT22;32037;50.820;6.494;2023-04-24T07:51:41;13.90;82.10
46309;DHT22;32037;50.820;6.494;2023-04-24T07:54:09;13.90;82.10
46309;DHT22;32037;50.820;6.494;2023-04-24T07:56:38;13.90;82.30
46309;DHT22;32037;50.820;6.494;2023-04-24T07:59:08;13.90;82.10
46309;DHT22;32037;50.820;6.494;2023-04-24T08:01:37;13.90;82.10
46309;DHT22;32037;50.820;6.494;2023-04-24T08:04:08;13.90;81.80
46309;DHT22;32037;50.820;6.494;2023-04-24T08:06:37;13.90;81.80
46309;DHT22;32037;50.820;6.494;2023-04-24T08:09:07;13.90;81.90
46309;DHT22;32037;50.820;6.494;2023-04-24T08:11:36;13.80;81.80
46309;DHT22;32037;50.820;6.494;2023-04-24T08:14:09;13.80;81.70
46309;DHT22;32037;50.820;6.494;2023-04-24T08:16:40;13.90;81.90
46309;DHT22;32037;50.820;6.494;2023-04-24T08:19:29;13.90;82.00
46309;DHT22;32037;50.820;6.494;2023-04-24T08:21:58;13.80;81.90
46309;DHT22;32037;50.820;6.494;2023-04-24T08:24:28;13.80;82.00
46309;DHT22;32037;50.820;6.494;2023-04-24T08:26:57;13.80;82.10
46309;DHT22;32037;50.820;6.494;2023-04-24T08:29:28;13.80;82.10
46309;DHT22;32037;50.820;6.494;2023-04-24T08:31:57;13.80;82.20
46309;DHT22;32037;50.820;6.494;2023-04-24T08:34:26;13.80;82.20
46309;DHT22;32037;50.820;6.494;2023-04-24T08:36:54;13.80;82.20
46309;DHT22;32037;50.820;6.494;2023-04-24T08:39:23;13.80;82.30
46309;DHT22;32037;50.820;6.494;2023-04-24T08:41:52;13.80;82.30
46309;DHT22;32037;50.820;6.494;2023-04-24T08:44:21;13.80;82.40
46309;DHT22;32037;50.820;6.494;2023-04-24T08:46:52;13.80;82.50
46309;DHT22;32037;50.820;6.494;2023-04-24T08:49:24;13.80;82.10
46309;DHT22;32037;50.820;6.494;2023-04-24T08:51:53;13.80;82.50
46309;DHT22;32037;50.820;6.494;2023-04-24T08:54:22;13.80;82.60
46309;DHT22;32037;50.820;6.494;2023-04-24T08:56:50;13.80;82.80
46309;DHT22;32037;50.820;6.494;2023-04-24T09:27:07;13.70;82.70
46309;DHT22;32037;50.820;6.494;2023-04-24T09:29:37;13.70;82.90
46309;DHT22;32037;50.820;6.494;2023-04-24T09:32:21;13.70;82.80
46309;DHT22;32037;50.820;6.494;2023-04-24T09:35:06;13.70;83.00
46309;DHT22;32037;50.820;6.494;2023-04-24T09:37:37;13.70;82.90
46309;DHT22;32037;50.820;6.494;2023-04-24T09:40:14;13.70;83.10
46309;DHT22;32037;50.820;6.494;2023-04-24T09:42:46;13.70;83.00
46309;DHT22;32037;50.820;6.494;2023-04-24T09:45:15;13.70;82.90
46309;DHT22;32037;50.820;6.494;2023-04-24T09:47:44;13.70;83.00
46309;DHT22;32037;50.820;6.494;2023-04-24T10:13:55;13.60;83.00
46309;DHT22;32037;50.820;6.494;2023-04-24T10:21:11;13.70;83.20
46309;DHT22;32037;50.820;6.494;2023-04-24T10:23:42;13.70;83.50
46309;DHT22;32037;50.820;6.494;2023-04-24T10:26:12;13.60;83.30
46309;DHT22;32037;50.820;6.494;2023-04-24T10:28:45;13.60;83.30
46309;DHT22;32037;50.820;6.494;2023-04-24T10:31:15;13.70;83.40
46309;DHT22;32037;50.820;6.494;2023-04-24T10:33:46;13.70;83.40
46309;DHT22;32037;50.820;6.494;2023-04-24T10:36:16;13.70;83.40
46309;DHT22;32037;50.820;6.494;2023-04-24T10:38:46;13.70;83.30
46309;DHT22;32037;50.820;6.494;2023-04-24T10:41:18;13.70;83.50
46309;DHT22;32037;50.820;6.494;2023-04-24T10:44:04;13.60;83.40
46309;DHT22;32037;50.820;6.494;2023-04-24T10:46:36;13.70;83.50
46309;DHT22;32037;50.820;6.494;2023-04-24T10:49:05;13.60;83.30
46309;DHT22;32037;50.820;6.494;2023-04-24T10:51:47;13.60;83.30
46309;DHT22;32037;50.820;6.494;2023-04-24T10:54:22;13.60;83.40
46309;DHT22;32037;50.820;6.494;2023-04-24T10:56:51;13.60;83.40
46309;DHT22;32037;50.820;6.494;2023-04-24T10:59:27;13.60;83.40
46309;DHT22;32037;50.820;6.494;2023-04-24T11:02:07;13.60;83.50
46309;DHT22;32037;50.820;6.494;2023-04-24T11:04:36;13.60;83.60
46309;DHT22;32037;50.820;6.494;2023-04-24T11:07:05;13.60;83.60
46309;DHT22;32037;50.820;6.494;2023-04-24T11:09:33;13.60;83.60
46309;DHT22;32037;50.820;6.494;2023-04-24T11:12:07;13.60;83.60
46309;DHT22;32037;50.820;6.494;2023-04-24T11:15:00;13.60;83.60
46309;DHT22;32037;50.820;6.494;2023-04-24T11:17:32;13.60;83.60
46309;DHT22;32037;50.820;6.494;2023-04-24T11:20:02;13.60;83.50
46309;DHT22;32037;50.820;6.494;2023-04-24T11:22:53;13.60;83.60
46309;DHT22;32037;50.820;6.494;2023-04-24T11:25:23;13.60;83.60
46309;DHT22;32037;50.820;6.494;2023-04-24T11:28:03;13.60;83.50
46309;DHT22;32037;50.820;6.494;2023-04-24T11:30:32;13.60;83.40
46309;DHT22;32037;50.820;6.494;2023-04-24T11:33:04;13.60;83.40
46309;DHT22;32037;50.820;6.494;2023-04-24T11:35:35;13.60;83.40
46309;DHT22;32037;50.820;6.494;2023-04-24T11:38:07;13.60;83.40
46309;DHT22;32037;50.820;6.494;2023-04-24T11:40:51;13.60;83.40
46309;DHT22;32037;50.820;6.494;2023-04-24T11:43:20;13.60;83.50
46309;DHT22;32037;50.820;6.494;2023-04-24T11:45:50;13.60;83.30
46309;DHT22;32037;50.820;6.494;2023-04-24T11:48:22;13.60;83.40
46309;DHT22;32037;50.820;6.494;2023-04-24T11:50:51;13.60;83.60
46309;DHT22;32037;50.820;6.494;2023-04-24T11:53:19;13.60;83.70
46309;DHT22;32037;50.820;6.494;2023-04-24T11:55:49;13.60;83.60
46309;DHT22;32037;50.820;6.494;2023-04-24T11:58:21;13.60;83.60
46309;DHT22;32037;50.820;6.494;2023-04-24T12:00:56;13.60;83.40
46309;DHT22;32037;50.820;6.494;2023-04-24T12:03:26;13.60;83.50
46309;DHT22;32037;50.820;6.494;2023-04-24T12:06:05;13.60;83.60
46309;DHT22;32037;50.820;6.494;2023-04-24T12:08:35;13.50;83.40
46309;DHT22;32037;50.820;6.494;2023-04-24T12:11:06;13.60;83.70
46309;DHT22;32037;50.820;6.494;2023-04-24T12:13:35;13.60;83.60
46309;DHT22;32037;50.820;6.494;2023-04-24T12:16:04;13.60;83.60
46309;DHT22;32037;50.820;6.494;2023-04-24T12:18:43;13.50;83.50
46309;DHT22;32037;50.820;6.494;2023-04-24T12:21:21;13.50;83.50
46309;DHT22;32037;50.820;6.494;2023-04-24T12:23:54;13.60;83.70
46309;DHT22;32037;50.820;6.494;2023-04-24T12:26:23;13.60;83.60
46309;DHT22;32037;50.820;6.494;2023-04-24T12:28:53;13.60;83.60
46309;DHT22;32037;50.820;6.494;2023-04-24T12:31:21;13.60;83.50
46309;DHT22;32037;50.820;6.494;2023-04-24T12:33:52;13.60;83.00
46309;DHT22;32037;50.820;6.494;2023-04-24T12:36:21;13.60;82.80
46309;DHT22;32037;50.820;6.494;2023-04-24T12:38:53;13.60;83.00
46309;DHT22;32037;50.820;6.494;2023-04-24T12:41:21;13.60;82.90
46309;DHT22;32037;50.820;6.494;2023-04-24T12:43:54;13.60;82.60
46309;DHT22;32037;50.820;6.494;2023-04-24T12:46:24;13.50;82.60
46309;DHT22;32037;50.820;6.494;2023-04-24T12:48:54;13.60;82.60
46309;DHT22;32037;50.820;6.494;2023-04-24T12:51:23;13.50;82.50
46309;DHT22;32037;50.820;6.494;2023-04-24T12:53:52;13.60;82.30
46309;DHT22;32037;50.820;6.494;2023-04-24T12:56:22;13.50;82.10
46309;DHT22;32037;50.820;6.494;2023-04-24T12:58:51;13.50;82.60
46309;DHT22;32037;50.820;6.494;2023-04-24T13:01:19;13.50;82.70
46309;DHT22;32037;50.820;6.494;2023-04-24T13:03:48;13.50;82.80
46309;DHT22;32037;50.820;6.494;2023-04-24T13:06:18;13.50;83.30
46309;DHT22;32037;50.820;6.494;2023-04-24T13:08:46;13.50;83.30
46309;DHT22;32037;50.820;6.494;2023-04-24T13:11:15;13.50;83.00
46309;DHT22;32037;50.820;6.494;2023-04-24T13:13:44;13.50;83.10
46309;DHT22;32037;50.820;6.494;2023-04-24T13:16:13;13.50;83.10
46309;DHT22;32037;50.820;6.494;2023-04-24T13:18:41;13.50;83.10
46309;DHT22;32037;50.820;6.494;2023-04-24T13:21:09;13.50;82.90
46309;DHT22;32037;50.820;6.494;2023-04-24T13:23:39;13.50;83.00
46309;DHT22;32037;50.820;6.494;2023-04-24T13:26:10;13.50;82.80
46309;DHT22;32037;50.820;6.494;2023-04-24T13:28:38;13.50;82.90
46309;DHT22;32037;50.820;6.494;2023-04-24T13:31:07;13.50;83.00
46309;DHT22;32037;50.820;6.494;2023-04-24T13:33:35;13.50;83.10
46309;DHT22;32037;50.820;6.494;2023-04-24T13:36:04;13.50;83.10
46309;DHT22;32037;50.820;6.494;2023-04-24T13:38:36;13.50;83.00
46309;DHT22;32037;50.820;6.494;2023-04-24T13:41:06;13.50;82.80
46309;DHT22;32037;50.820;6.494;2023-04-24T13:43:34;13.50;82.60
46309;DHT22;32037;50.820;6.494;2023-04-24T13:46:03;13.50;82.80
46309;DHT22;32037;50.820;6.494;2023-04-24T13:48:31;13.50;82.70
46309;DHT22;32037;50.820;6.494;2023-04-24T13:51:00;13.40;82.60
46309;DHT22;32037;50.820;6.494;2023-04-24T13:53:29;13.40;82.40
46309;DHT22;32037;50.820;6.494;2023-04-24T13:55:57;13.50;82.30
46309;DHT22;32037;50.820;6.494;2023-04-24T13:58:27;13.50;82.10
46309;DHT22;32037;50.820;6.494;2023-04-24T14:00:56;13.50;82.20
46309;DHT22;32037;50.820;6.494;2023-04-24T14:03:24;13.50;81.90
46309;DHT22;32037;50.820;6.494;2023-04-24T14:05:53;13.50;82.10
46309;DHT22;32037;50.820;6.494;2023-04-24T14:08:23;13.50;81.90
46309;DHT22;32037;50.820;6.494;2023-04-24T14:10:52;13.40;81.60
46309;DHT22;32037;50.820;6.494;2023-04-24T14:13:20;13.50;81.90
46309;DHT22;32037;50.820;6.494;2023-04-24T14:15:51;13.50;81.00
46309;DHT22;32037;50.820;6.494;2023-04-24T14:18:20;13.50;81.70
46309;DHT22;32037;50.820;6.494;2023-04-24T14:20:49;13.50;81.90
46309;DHT22;32037;50.820;6.494;2023-04-24T14:23:18;13.50;81.80
46309;DHT22;32037;50.820;6.494;2023-04-24T14:25:48;13.50;81.60
46309;DHT22;32037;50.820;6.494;2023-04-24T14:28:19;13.50;81.50
46309;DHT22;32037;50.820;6.494;2023-04-24T14:30:49;13.50;81.50
46309;DHT22;32037;50.820;6.494;2023-04-24T14:33:18;13.50;81.70
46309;DHT22;32037;50.820;6.494;2023-04-24T14:35:46;13.50;81.60
46309;DHT22;32037;50.820;6.494;2023-04-24T14:38:15;13.50;81.50
46309;DHT22;32037;50.820;6.494;2023-04-24T14:40:43;13.50;81.00
46309;DHT22;32037;50.820;6.494;2023-04-24T14:43:32;13.50;81.30
46309;DHT22;32037;50.820;6.494;2023-04-24T14:46:04;13.50;81.20
46309;DHT22;32037;50.820;6.494;2023-04-24T14:48:33;13.50;81.10
46309;DHT22;32037;50.820;6.494;2023-04-24T14:51:01;13.50;81.10
46309;DHT22;32037;50.820;6.494;2023-04-24T14:53:33;13.50;80.80
46309;DHT22;32037;50.820;6.494;2023-04-24T14:56:02;13.50;76.30
46309;DHT22;32037;50.820;6.494;2023-04-24T14:58:31;13.40;76.80
46309;DHT22;32037;50.820;6.494;2023-04-24T15:00:59;13.40;77.90
46309;DHT22;32037;50.820;6.494;2023-04-24T15:03:29;13.40;78.60
46309;DHT22;32037;50.820;6.494;2023-04-24T15:05:58;13.40;79.00
46309;DHT22;32037;50.820;6.494;2023-04-24T15:08:26;13.50;78.60
46309;DHT22;32037;50.820;6.494;2023-04-24T15:10:55;13.50;79.10
46309;DHT22;32037;50.820;6.494;2023-04-24T15:13:23;13.50;78.60
46309;DHT22;32037;50.820;6.494;2023-04-24T15:15:52;13.50;79.00
46309;DHT22;32037;50.820;6.494;2023-04-24T15:18:21;13.50;79.30
46309;DHT22;32037;50.820;6.494;2023-04-24T15:20:51;13.50;79.20
46309;DHT22;32037;50.820;6.494;2023-04-24T15:23:19;13.50;79.20
46309;DHT22;32037;50.820;6.494;2023-04-24T15:25:48;13.50;79.40
46309;DHT22;32037;50.820;6.494;2023-04-24T15:28:16;13.50;79.60
46309;DHT22;32037;50.820;6.494;2023-04-24T15:30:46;13.50;79.10
46309;DHT22;32037;50.820;6.494;2023-04-24T15:33:19;13.50;79.00
46309;DHT22;32037;50.820;6.494;2023-04-24T15:35:48;13.50;79.20
46309;DHT22;32037;50.820;6.494;2023-04-24T15:38:18;13.50;79.50
46309;DHT22;32037;50.820;6.494;2023-04-24T15:40:47;13.50;79.00
46309;DHT22;32037;50.820;6.494;2023-04-24T15:43:16;13.50;79.00
46309;DHT22;32037;50.820;6.494;2023-04-24T15:45:44;13.50;79.00
46309;DHT22;32037;50.820;6.494;2023-04-24T15:48:13;13.50;79.00
46309;DHT22;32037;50.820;6.494;2023-04-24T15:50:41;13.50;78.30
46309;DHT22;32037;50.820;6.494;2023-04-24T15:53:10;13.50;79.40
46309;DHT22;32037;50.820;6.494;2023-04-24T15:55:40;13.50;79.10
46309;DHT22;32037;50.820;6.494;2023-04-24T15:58:08;13.50;78.90
46309;DHT22;32037;50.820;6.494;2023-04-24T16:00:36;13.50;78.70
46309;DHT22;32037;50.820;6.494;2023-04-24T16:03:05;13.50;79.00
46309;DHT22;32037;50.820;6.494;2023-04-24T16:05:36;13.50;79.40
46309;DHT22;32037;50.820;6.494;2023-04-24T16:08:05;13.50;80.00
46309;DHT22;32037;50.820;6.494;2023-04-24T16:10:33;13.40;75.30
46309;DHT22;32037;50.820;6.494;2023-04-24T16:13:04;13.30;74.60
46309;DHT22;32037;50.820;6.494;2023-04-24T16:15:33;13.30;76.30
46309;DHT22;32037;50.820;6.494;2023-04-24T16:18:02;13.30;77.00
46309;DHT22;32037;50.820;6.494;2023-04-24T16:20:31;13.40;77.70
46309;DHT22;32037;50.820;6.494;2023-04-24T16:22:59;13.40;78.00
46309;DHT22;32037;50.820;6.494;2023-04-24T16:25:28;13.40;78.30
46309;DHT22;32037;50.820;6.494;2023-04-24T16:27:58;13.40;78.40
46309;DHT22;32037;50.820;6.494;2023-04-24T16:30:28;13.40;78.50
46309;DHT22;32037;50.820;6.494;2023-04-24T16:32:57;13.40;80.00
46309;DHT22;32037;50.820;6.494;2023-04-24T16:35:26;13.40;78.90
46309;DHT22;32037;50.820;6.494;2023-04-24T16:37:54;13.40;78.60
46309;DHT22;32037;50.820;6.494;2023-04-24T16:40:23;13.50;78.30
46309;DHT22;32037;50.820;6.494;2023-04-24T16:42:51;13.50;78.90
46309;DHT22;32037;50.820;6.494;2023-04-24T16:45:21;13.50;78.80
46309;DHT22;32037;50.820;6.494;2023-04-24T16:47:50;13.40;78.90
46309;DHT22;32037;50.820;6.494;2023-04-24T16:50:19;13.50;78.80
46309;DHT22;32037;50.820;6.494;2023-04-24T16:52:48;13.50;79.00
46309;DHT22;32037;50.820;6.494;2023-04-24T16:55:17;13.40;78.80
46309;DHT22;32037;50.820;6.494;2023-04-24T16:57:45;13.40;79.10
46309;DHT22;32037;50.820;6.494;2023-04-24T17:00:15;13.50;79.00
46309;DHT22;32037;50.820;6.494;2023-04-24T17:02:43;13.50;78.40
46309;DHT22;32037;50.820;6.494;2023-04-24T17:05:16;13.50;78.80
46309;DHT22;32037;50.820;6.494;2023-04-24T17:07:47;13.40;78.70
46309;DHT22;32037;50.820;6.494;2023-04-24T17:10:15;13.40;79.00
46309;DHT22;32037;50.820;6.494;2023-04-24T17:12:44;13.40;79.20
46309;DHT22;32037;50.820;6.494;2023-04-24T17:15:13;13.40;78.90
46309;DHT22;32037;50.820;6.494;2023-04-24T17:17:41;13.50;78.80
46309;DHT22;32037;50.820;6.494;2023-04-24T17:20:12;13.50;79.20
46309;DHT22;32037;50.820;6.494;2023-04-24T17:22:51;13.40;79.40
46309;DHT22;32037;50.820;6.494;2023-04-24T17:25:20;13.40;79.60
46309;DHT22;32037;50.820;6.494;2023-04-24T17:27:49;13.50;79.50
46309;DHT22;32037;50.820;6.494;2023-04-24T17:30:17;13.50;79.70
46309;DHT22;32037;50.820;6.494;2023-04-24T17:32:46;13.50;79.50
46309;DHT22;32037;50.820;6.494;2023-04-24T17:35:15;13.40;79.30
46309;DHT22;32037;50.820;6.494;2023-04-24T17:37:43;13.50;79.70
46309;DHT22;32037;50.820;6.494;2023-04-24T17:40:13;13.40;79.50
46309;DHT22;32037;50.820;6.494;2023-04-24T17:42:42;13.50;79.20
46309;DHT22;32037;50.820;6.494;2023-04-24T17:45:11;13.50;79.80
46309;DHT22;32037;50.820;6.494;2023-04-24T17:47:40;13.40;79.80
46309;DHT22;32037;50.820;6.494;2023-04-24T17:50:09;13.40;80.00
46309;DHT22;32037;50.820;6.494;2023-04-24T17:52:37;13.40;79.90
46309;DHT22;32037;50.820;6.494;2023-04-24T17:55:07;13.50;80.00
46309;DHT22;32037;50.820;6.494;2023-04-24T17:57:37;13.50;80.10
46309;DHT22;32037;50.820;6.494;2023-04-24T18:00:07;13.40;79.80
46309;DHT22;32037;50.820;6.494;2023-04-24T18:02:36;13.50;80.10
46309;DHT22;32037;50.820;6.494;2023-04-24T18:05:05;13.50;80.20
46309;DHT22;32037;50.820;6.494;2023-04-24T18:07:33;13.40;80.10
46309;DHT22;32037;50.820;6.494;2023-04-24T18:10:02;13.40;80.10
46309;DHT22;32037;50.820;6.494;2023-04-24T18:12:30;13.40;80.10
46309;DHT22;32037;50.820;6.494;2023-04-24T18:15:02;13.40;79.90
46309;DHT22;32037;50.820;6.494;2023-04-24T18:17:41;13.40;80.00
46309;DHT22;32037;50.820;6.494;2023-04-24T18:20:10;13.40;80.20
46309;DHT22;32037;50.820;6.494;2023-04-24T18:22:39;13.40;80.10
46309;DHT22;32037;50.820;6.494;2023-04-24T18:25:11;13.40;80.00
46309;DHT22;32037;50.820;6.494;2023-04-24T18:27:40;13.40;80.00
46309;DHT22;32037;50.820;6.494;2023-04-24T18:30:12;13.40;80.20
46309;DHT22;32037;50.820;6.494;2023-04-24T18:32:41;13.40;80.20
46309;DHT22;32037;50.820;6.494;2023-04-24T18:35:09;13.40;80.30
46309;DHT22;32037;50.820;6.494;2023-04-24T18:37:38;13.40;80.30
46309;DHT22;32037;50.820;6.494;2023-04-24T18:40:08;13.40;80.20
46309;DHT22;32037;50.820;6.494;2023-04-24T18:42:37;13.40;80.40
46309;DHT22;32037;50.820;6.494;2023-04-24T18:45:07;13.40;80.40
46309;DHT22;32037;50.820;6.494;2023-04-24T18:47:40;13.40;80.40
46309;DHT22;32037;50.820;6.494;2023-04-24T18:50:10;13.40;80.40
46309;DHT22;32037;50.820;6.494;2023-04-24T18:52:40;13.40;80.50
46309;DHT22;32037;50.820;6.494;2023-04-24T18:55:09;13.40;80.50
46309;DHT22;32037;50.820;6.494;2023-04-24T18:57:38;13.40;80.50
46309;DHT22;32037;50.820;6.494;2023-04-24T19:00:08;13.40;80.60
46309;DHT22;32037;50.820;6.494;2023-04-24T19:02:38;13.40;80.60
46309;DHT22;32037;50.820;6.494;2023-04-24T19:05:08;13.40;80.50
46309;DHT22;32037;50.820;6.494;2023-04-24T19:07:38;13.40;80.50
46309;DHT22;32037;50.820;6.494;2023-04-24T19:10:09;13.40;80.50
46309;DHT22;32037;50.820;6.494;2023-04-24T19:12:37;13.40;80.50
46309;DHT22;32037;50.820;6.494;2023-04-24T19:15:07;13.40;80.70
46309;DHT22;32037;50.820;6.494;2023-04-24T19:17:37;13.40;80.60
46309;DHT22;32037;50.820;6.494;2023-04-24T19:20:08;13.40;80.90
46309;DHT22;32037;50.820;6.494;2023-04-24T19:22:37;13.40;80.80
46309;DHT22;32037;50.820;6.494;2023-04-24T19:25:06;13.40;80.90
46309;DHT22;32037;50.820;6.494;2023-04-24T19:27:35;13.40;80.60
46309;DHT22;32037;50.820;6.494;2023-04-24T19:30:05;13.40;80.80
46309;DHT22;32037;50.820;6.494;2023-04-24T19:32:34;13.40;80.90
46309;DHT22;32037;50.820;6.494;2023-04-24T19:35:03;13.40;81.00
46309;DHT22;32037;50.820;6.494;2023-04-24T19:37:33;13.40;81.00
46309;DHT22;32037;50.820;6.494;2023-04-24T19:40:02;13.40;81.00
46309;DHT22;32037;50.820;6.494;2023-04-24T19:42:31;13.40;81.00
46309;DHT22;32037;50.820;6.494;2023-04-24T19:45:11;13.40;81.00
46309;DHT22;32037;50.820;6.494;2023-04-24T19:47:39;13.40;81.30
46309;DHT22;32037;50.820;6.494;2023-04-24T19:50:08;13.40;81.10
46309;DHT22;32037;50.820;6.494;2023-04-24T19:52:38;13.40;81.20
46309;DHT22;32037;50.820;6.494;2023-04-24T19:55:07;13.40;81.00
46309;DHT22;32037;50.820;6.494;2023-04-24T19:57:36;13.40;81.00
46309;DHT22;32037;50.820;6.494;2023-04-24T20:00:06;13.40;81.30
46309;DHT22;32037;50.820;6.494;2023-04-24T20:02:34;13.40;81.40
46309;DHT22;32037;50.820;6.494;2023-04-24T20:05:04;13.40;81.30
46309;DHT22;32037;50.820;6.494;2023-04-24T20:07:33;13.40;81.30
46309;DHT22;32037;50.820;6.494;2023-04-24T20:10:03;13.30;81.40
46309;DHT22;32037;50.820;6.494;2023-04-24T20:12:33;13.40;81.70
46309;DHT22;32037;50.820;6.494;2023-04-24T20:15:02;13.40;81.80
46309;DHT22;32037;50.820;6.494;2023-04-24T20:17:30;13.40;81.70
46309;DHT22;32037;50.820;6.494;2023-04-24T20:19:59;13.40;81.90
46309;DHT22;32037;50.820;6.494;2023-04-24T20:22:28;13.40;81.70
46309;DHT22;32037;50.820;6.494;2023-04-24T20:24:57;13.40;81.60
46309;DHT22;32037;50.820;6.494;2023-04-24T20:27:27;13.30;81.70
46309;DHT22;32037;50.820;6.494;2023-04-24T20:29:56;13.30;81.50
46309;DHT22;32037;50.820;6.494;2023-04-24T20:32:25;13.40;81.60
46309;DHT22;32037;50.820;6.494;2023-04-24T20:34:53;13.40;81.50
46309;DHT22;32037;50.820;6.494;2023-04-24T20:37:22;13.40;81.50
46309;DHT22;32037;50.820;6.494;2023-04-24T20:39:51;13.40;81.70
46309;DHT22;32037;50.820;6.494;2023-04-24T20:42:21;13.40;81.50
46309;DHT22;32037;50.820;6.494;2023-04-24T20:44:52;13.30;81.70
46309;DHT22;32037;50.820;6.494;2023-04-24T20:47:20;13.30;81.50
46309;DHT22;32037;50.820;6.494;2023-04-24T20:49:49;13.30;82.00
46309;DHT22;32037;50.820;6.494;2023-04-24T20:52:18;13.40;81.80
46309;DHT22;32037;50.820;6.494;2023-04-24T20:54:47;13.40;81.80
46309;DHT22;32037;50.820;6.494;2023-04-24T20:57:16;13.40;81.60
46309;DHT22;32037;50.820;6.494;2023-04-24T20:59:44;13.30;81.50